createdAt,value
2023-09-07T00:01:09.578Z,9.88
2023-09-07T00:06:11.953Z,8.45
2023-09-07T00:11:14.115Z,8.13
2023-09-07T00:16:16.281Z,7.57
2023-09-07T00:21:18.448Z,5.90
2023-09-07T00:26:20.605Z,5.63
2023-09-07T00:31:23.311Z,6.50
2023-09-07T00:36:25.488Z,6.40
2023-09-07T00:41:27.645Z,5.97
2023-09-07T00:46:29.816Z,4.63
2023-09-07T00:51:32.974Z,5.50
2023-09-07T00:56:37.393Z,7.68
2023-09-07T01:01:39.901Z,6.57
2023-09-07T01:06:52.398Z,10.95
2023-09-07T01:11:54.712Z,9.32
2023-09-07T01:16:57.470Z,10.55
2023-09-07T01:22:01.372Z,9.18
2023-09-07T01:27:04.471Z,9.52
2023-09-07T01:32:07.404Z,7.43
2023-09-07T01:37:09.689Z,6.13
2023-09-07T01:42:12.561Z,6.65
2023-09-07T01:47:14.793Z,6.20
2023-09-07T01:52:16.997Z,8.77
2023-09-07T01:57:19.379Z,8.68
2023-09-07T02:02:21.692Z,6.45
2023-09-07T02:07:24.368Z,10.10
2023-09-07T02:12:26.619Z,6.13
2023-09-07T02:17:28.866Z,6.30
2023-09-07T02:22:31.128Z,9.35
2023-09-07T02:27:37.107Z,8.80
2023-09-07T02:32:39.357Z,7.75
2023-09-07T02:37:41.595Z,6.28
2023-09-07T02:42:44.337Z,7.35
2023-09-07T02:47:47.697Z,6.95
2023-09-07T02:52:50.017Z,6.28
2023-09-07T02:57:52.471Z,4.70
2023-09-07T03:02:54.952Z,7.03
2023-09-07T03:07:57.375Z,7.18
2023-09-07T03:12:59.666Z,5.32
2023-09-07T03:18:02.423Z,5.38
2023-09-07T03:23:04.998Z,8.23
2023-09-07T03:28:07.664Z,6.28
2023-09-07T03:33:11.789Z,7.05
2023-09-07T03:38:14.884Z,6.65
2023-09-07T03:43:17.224Z,6.05
2023-09-07T03:48:20.712Z,6.60
2023-09-07T03:53:23.685Z,5.88
2023-09-07T03:58:25.864Z,5.97
2023-09-07T04:03:28.211Z,4.72
2023-09-07T04:08:30.843Z,6.00
2023-09-07T04:13:33.931Z,7.97
2023-09-07T04:18:36.065Z,4.90
2023-09-07T04:23:39.769Z,5.53
2023-09-07T04:28:42.057Z,7.63
2023-09-07T04:33:44.343Z,4.20
2023-09-07T04:38:46.841Z,7.55
2023-09-07T04:43:49.602Z,7.57
2023-09-07T04:48:51.960Z,4.65
2023-09-07T04:53:55.387Z,5.25
2023-09-07T04:58:57.983Z,7.63
2023-09-07T05:04:03.143Z,7.43
2023-09-07T05:09:05.732Z,5.03
2023-09-07T05:14:08.290Z,10.07
2023-09-07T05:19:10.589Z,6.07
2023-09-07T05:24:15.954Z,8.52
2023-09-07T05:29:18.113Z,7.03
2023-09-07T05:34:20.394Z,6.25
2023-09-07T05:39:22.775Z,9.02
2023-09-07T05:44:25.102Z,7.10
2023-09-07T05:49:27.423Z,6.30
2023-09-07T05:54:29.651Z,4.25
2023-09-07T05:59:31.946Z,5.28
2023-09-07T06:04:34.271Z,5.47
2023-09-07T06:09:36.522Z,11.85
2023-09-07T06:14:38.829Z,6.22
2023-09-07T06:19:41.498Z,4.57
2023-09-07T06:24:43.884Z,4.65
2023-09-07T06:29:46.100Z,6.53
2023-09-07T06:34:49.597Z,7.70
2023-09-07T06:39:53.040Z,7.25
2023-09-07T06:44:55.363Z,7.97
2023-09-07T06:49:58.844Z,6.07
2023-09-07T06:55:01.437Z,9.63
2023-09-07T07:00:08.011Z,8.70
2023-09-07T07:05:11.305Z,8.95
2023-09-07T07:10:13.992Z,7.10
2023-09-07T07:15:16.996Z,6.53
2023-09-07T07:20:19.214Z,6.25
2023-09-07T07:25:21.633Z,6.82
2023-09-07T07:30:23.911Z,4.60
2023-09-07T07:35:26.764Z,13.70
2023-09-07T07:40:29.260Z,9.65
2023-09-07T07:45:33.204Z,6.00
2023-09-07T07:50:41.708Z,6.95
2023-09-07T07:55:46.277Z,7.38
2023-09-07T08:00:52.681Z,9.98
2023-09-07T08:06:00.865Z,6.43
2023-09-07T08:11:06.870Z,7.47
2023-09-07T08:16:14.234Z,8.50
2023-09-07T08:21:17.520Z,6.65
2023-09-07T08:26:21.507Z,5.18
2023-09-07T08:31:23.936Z,9.82
2023-09-07T08:36:29.434Z,8.10
2023-09-07T08:41:32.308Z,6.65
2023-09-07T08:46:41.771Z,11.98
2023-09-07T08:51:43.983Z,8.23
2023-09-07T08:56:47.046Z,8.35
2023-09-07T09:01:49.243Z,13.05
2023-09-07T09:06:53.295Z,13.02
2023-09-07T09:11:55.395Z,9.98
2023-09-07T09:16:57.465Z,12.48
2023-09-07T09:21:59.801Z,11.13
2023-09-07T09:27:02.171Z,9.18
2023-09-07T09:32:05.889Z,10.38
2023-09-07T09:37:16.927Z,6.93
2023-09-07T09:42:19.297Z,8.88
2023-09-07T09:47:23.553Z,9.50
2023-09-07T09:52:27.357Z,10.13
2023-09-07T09:57:31.547Z,8.88
2023-09-07T10:02:38.686Z,5.53
2023-09-07T10:07:45.340Z,13.45
2023-09-07T10:12:54.813Z,8.60
2023-09-07T10:18:16.841Z,7.47
2023-09-07T10:23:19.864Z,9.50
2023-09-07T10:28:26.657Z,10.60
2023-09-07T10:33:28.888Z,8.85
2023-09-07T10:38:36.551Z,10.98
2023-09-07T10:43:57.064Z,7.50
2023-09-07T10:49:00.231Z,6.93
2023-09-07T10:54:02.490Z,9.05
2023-09-07T10:59:04.638Z,8.90
2023-09-07T11:04:09.335Z,10.57
2023-09-07T11:09:12.330Z,15.98
2023-09-07T11:14:14.819Z,9.75
2023-09-07T11:19:17.540Z,8.35
2023-09-07T11:24:19.891Z,6.05
2023-09-07T11:29:24.126Z,4.75
2023-09-07T11:34:26.278Z,5.40
2023-09-07T11:39:28.516Z,5.40
2023-09-07T11:44:30.632Z,8.57
2023-09-07T11:49:34.114Z,6.82
2023-09-07T11:54:36.273Z,5.45
2023-09-07T11:59:52.368Z,7.05
2023-09-07T12:05:01.806Z,7.80
2023-09-07T12:10:04.578Z,9.18
2023-09-07T12:15:08.757Z,7.90
2023-09-07T12:20:12.102Z,11.15
2023-09-07T12:25:16.271Z,7.55
2023-09-07T12:30:22.156Z,6.10
2023-09-07T12:35:24.758Z,6.33
2023-09-07T12:40:27.022Z,4.72
2023-09-07T12:45:29.236Z,7.03
2023-09-07T12:50:31.425Z,16.10
2023-09-07T12:55:34.144Z,16.35
2023-09-07T13:00:36.397Z,17.25
2023-09-07T13:05:38.693Z,11.45
2023-09-07T13:10:41.117Z,9.25
2023-09-07T13:15:43.289Z,13.45
2023-09-07T13:20:46.489Z,14.38
2023-09-07T13:25:48.613Z,9.20
2023-09-07T13:30:53.999Z,5.40
2023-09-07T13:35:56.115Z,5.80
2023-09-07T13:40:58.204Z,14.68
2023-09-07T13:46:01.465Z,13.57
2023-09-07T13:51:05.069Z,10.43
2023-09-07T13:56:07.206Z,15.95
2023-09-07T14:01:09.615Z,10.35
2023-09-07T14:06:11.788Z,10.07
2023-09-07T14:11:14.080Z,8.07
2023-09-07T14:16:16.230Z,8.27
2023-09-07T14:21:19.171Z,13.82
2023-09-07T14:26:21.509Z,14.88
2023-09-07T14:31:23.617Z,11.48
2023-09-07T14:36:25.850Z,19.45
2023-09-07T14:41:29.212Z,15.90
2023-09-07T14:46:31.606Z,17.73
2023-09-07T14:51:34.267Z,21.88
2023-09-07T14:56:36.609Z,18.17
2023-09-07T15:01:39.490Z,20.48
2023-09-07T15:06:41.708Z,24.00
2023-09-07T15:11:44.223Z,18.58
2023-09-07T15:16:46.678Z,23.38
2023-09-07T15:21:48.828Z,19.85
2023-09-07T15:26:50.975Z,21.17
2023-09-07T15:31:54.530Z,26.42
2023-09-07T15:36:56.780Z,17.95
2023-09-07T15:41:59.074Z,24.48
2023-09-07T15:47:01.247Z,15.57
2023-09-07T15:52:03.791Z,24.85
2023-09-07T15:57:07.076Z,17.15
2023-09-07T16:02:09.267Z,19.17
2023-09-07T16:07:11.490Z,17.48
2023-09-07T16:12:13.778Z,18.25
2023-09-07T16:17:16.004Z,19.58
2023-09-07T16:22:18.358Z,19.90
2023-09-07T16:27:20.524Z,19.08
2023-09-07T16:32:22.757Z,19.38
2023-09-07T16:37:27.243Z,11.00
2023-09-07T16:42:29.793Z,14.52
2023-09-07T16:47:31.967Z,16.83
2023-09-07T16:52:34.222Z,12.70
2023-09-07T16:57:36.570Z,18.55
2023-09-07T17:02:38.735Z,17.98
2023-09-07T17:07:41.012Z,10.15
2023-09-07T17:12:43.405Z,12.55
2023-09-07T17:17:45.649Z,14.07
2023-09-07T17:22:47.820Z,19.70
2023-09-07T17:27:49.962Z,21.85
2023-09-07T17:32:57.673Z,11.27
2023-09-07T17:37:59.875Z,13.07
2023-09-07T17:43:02.512Z,9.77
2023-09-07T17:48:05.106Z,14.48
2023-09-07T17:53:07.365Z,14.20
2023-09-07T17:58:09.523Z,12.43
2023-09-07T18:03:11.819Z,13.02
2023-09-07T18:08:13.954Z,11.98
2023-09-07T18:13:16.141Z,12.13
2023-09-07T18:18:18.843Z,11.30
2023-09-07T18:23:21.248Z,11.48
2023-09-07T18:28:23.368Z,10.10
2023-09-07T18:33:32.698Z,13.68
2023-09-07T18:38:35.629Z,12.93
2023-09-07T18:43:39.551Z,14.93
2023-09-07T18:48:41.637Z,14.18
2023-09-07T18:53:43.896Z,19.83
2023-09-07T18:58:46.103Z,10.00
2023-09-07T19:03:53.408Z,11.95
2023-09-07T19:08:56.002Z,10.13
2023-09-07T19:13:58.161Z,10.20
2023-09-07T19:19:00.345Z,10.75
2023-09-07T19:24:02.558Z,14.30
2023-09-07T19:29:09.475Z,12.23
2023-09-07T19:34:11.631Z,9.95
2023-09-07T19:39:14.208Z,9.90
2023-09-07T19:44:17.720Z,9.57
2023-09-07T19:49:20.776Z,9.43
2023-09-07T19:54:23.105Z,7.95
2023-09-07T19:59:25.312Z,7.28
2023-09-07T20:04:27.819Z,9.50
2023-09-07T20:09:30.299Z,7.18
2023-09-07T20:14:32.464Z,10.63
2023-09-07T20:19:44.638Z,7.15
2023-09-07T20:24:46.874Z,6.80
2023-09-07T20:29:49.134Z,8.23
2023-09-07T20:34:51.345Z,7.65
2023-09-07T20:39:55.062Z,8.43
2023-09-07T20:44:57.319Z,9.60
2023-09-07T20:49:59.604Z,8.60
2023-09-07T20:55:02.063Z,10.40
2023-09-07T21:00:07.717Z,10.55
2023-09-07T21:05:10.082Z,8.30
2023-09-07T21:10:12.357Z,10.60
2023-09-07T21:15:16.656Z,12.70
2023-09-07T21:20:18.835Z,9.63
2023-09-07T21:25:20.998Z,6.80
2023-09-07T21:30:23.797Z,8.50
2023-09-07T21:35:26.085Z,11.90
2023-09-07T21:40:28.432Z,5.43
2023-09-07T21:45:30.569Z,6.88
2023-09-07T21:50:32.779Z,12.20
2023-09-07T21:55:35.085Z,12.10
2023-09-07T22:00:37.484Z,10.30
2023-09-07T22:05:39.703Z,7.95
2023-09-07T22:10:41.930Z,10.65
2023-09-07T22:15:44.260Z,9.88
2023-09-07T22:20:46.504Z,8.82
2023-09-07T22:25:48.802Z,7.57
2023-09-07T22:30:51.175Z,10.43
2023-09-07T22:35:55.320Z,9.50
2023-09-07T22:40:57.719Z,9.80
2023-09-07T22:45:59.936Z,7.32
2023-09-07T22:51:02.316Z,8.77
2023-09-07T22:56:04.764Z,9.40
2023-09-07T23:01:07.157Z,6.90
2023-09-07T23:06:27.843Z,6.15
2023-09-07T23:11:30.043Z,9.38
2023-09-07T23:16:37.095Z,7.10
2023-09-07T23:21:39.525Z,10.13
2023-09-07T23:26:41.745Z,5.53
2023-09-07T23:31:45.042Z,6.93
2023-09-07T23:36:47.327Z,6.97
2023-09-07T23:41:49.835Z,9.00
2023-09-07T23:46:52.434Z,13.55
2023-09-07T23:51:54.955Z,9.23
2023-09-07T23:56:57.166Z,7.97
